Time;durP1;ratioP1;P1;durP2;ratioP2;P2;SDS_P1;SDS_P2;PMS_P1;PMS_P2;Temp;Humidity;BMP_temperature;BMP_pressure;BME280_temperature;BME280_humidity;BME280_pressure;Samples;Min_cycle;Max_cycle;Signal;HPM_P1;HPM_P2
2021/01/20 00:03:11;;;;;;;11.43;6.47;;;;;;;0.64;87.77;98020.10;249665;1148;22943;-78
2021/01/20 00:08:14;;;;;;;11.90;6.37;;;;;;;0.60;88.71;98014.53;249670;1155;22949;-76
2021/01/20 00:13:16;;;;;;;12.00;6.33;;;;;;;0.55;88.63;98017.09;249697;1148;22939;-76
2021/01/20 00:18:18;;;;;;;12.33;6.67;;;;;;;0.51;88.21;98024.66;249601;1148;23100;-77
2021/01/20 00:23:20;;;;;;;9.35;5.80;;;;;;;0.48;88.59;98022.52;249727;1148;23040;-77
2021/01/20 00:28:23;;;;;;;12.97;6.60;;;;;;;0.47;88.48;98015.64;249698;1148;23067;-77
2021/01/20 00:33:26;;;;;;;10.90;6.27;;;;;;;0.49;89.79;98028.57;249690;1148;23100;-78
2021/01/20 00:38:28;;;;;;;11.50;6.90;;;;;;;0.56;89.30;98033.69;249680;1155;23032;-76
2021/01/20 00:43:30;;;;;;;11.13;7.03;;;;;;;0.61;89.65;98033.77;249588;1148;23156;-76
2021/01/20 00:48:36;;;;;;;13.83;7.47;;;;;;;0.61;88.78;98037.19;249553;1148;22936;-77
2021/01/20 00:53:38;;;;;;;11.30;6.97;;;;;;;0.65;88.99;98037.52;249462;1148;22953;-74
2021/01/20 00:58:40;;;;;;;11.30;6.20;;;;;;;0.64;89.46;98047.28;249586;1148;22966;-76
2021/01/20 01:03:42;;;;;;;8.50;5.60;;;;;;;0.65;89.38;98042.80;249703;1148;22962;-76
2021/01/20 01:08:45;;;;;;;12.80;6.83;;;;;;;0.63;88.74;98039.59;249762;1150;22962;-76
2021/01/20 01:13:47;;;;;;;11.55;6.70;;;;;;;0.62;89.21;98040.64;249604;1148;22913;-76
2021/01/20 01:19:12;;;;;;;9.65;5.95;;;;;;;0.59;88.74;98039.28;249576;1148;22975;-77
2021/01/20 01:24:15;;;;;;;10.65;6.60;;;;;;;0.58;88.85;98037.69;249643;1148;22970;-77
2021/01/20 01:29:17;;;;;;;10.03;5.60;;;;;;;0.58;90.06;98032.41;249716;1148;22935;-75
2021/01/20 01:34:26;;;;;;;9.60;6.03;;;;;;;0.57;90.05;98028.17;249775;1148;22963;-76
2021/01/20 01:39:33;;;;;;;11.03;6.37;;;;;;;0.59;89.90;98022.66;249647;1155;23042;-77
2021/01/20 01:44:37;;;;;;;12.80;6.73;;;;;;;0.63;89.77;98032.49;249733;1148;22971;-75
2021/01/20 01:49:41;;;;;;;12.83;7.00;;;;;;;0.64;89.54;98023.55;249520;1148;22966;-77
2021/01/20 01:54:45;;;;;;;12.50;6.80;;;;;;;0.64;89.86;98020.92;249735;1148;22961;-77
2021/01/20 02:00:06;;;;;;;9.93;6.72;;;;;;;0.67;90.00;98024.88;249664;1150;22953;-77
2021/01/20 02:05:48;;;;;;;10.90;6.65;;;;;;;0.71;89.56;98018.09;249578;1148;22960;-77
2021/01/20 02:10:59;;;;;;;12.10;7.63;;;;;;;0.72;89.96;98013.63;249657;1148;22950;-82
2021/01/20 02:16:19;;;;;;;11.63;7.20;;;;;;;0.73;89.33;98021.30;249729;1149;23402;-75
2021/01/20 02:21:34;;;;;;;10.03;6.73;;;;;;;0.75;90.30;98021.05;249939;1147;22963;-80
2021/01/20 02:27:06;;;;;;;10.93;6.80;;;;;;;0.79;89.94;98024.80;249295;1148;22945;-77
2021/01/20 02:32:21;;;;;;;9.97;6.93;;;;;;;0.80;89.98;98034.31;249709;1148;22973;-78
2021/01/20 02:37:25;;;;;;;12.30;7.60;;;;;;;0.80;89.63;98034.31;249830;1151;22972;-76
2021/01/20 02:42:45;;;;;;;;;;;;;;;0.82;90.43;98032.22;249766;1148;26373;-77
2021/01/20 02:47:52;;;;;;;13.10;7.67;;;;;;;0.85;90.29;98031.73;249852;1148;24523;-76
2021/01/20 02:53:02;;;;;;;11.07;7.07;;;;;;;0.89;89.74;98039.97;249694;1148;23742;-76
2021/01/20 02:58:30;;;;;;;10.53;7.00;;;;;;;0.89;90.23;98029.41;249884;1148;23004;-77
2021/01/20 03:03:52;;;;;;;10.40;7.90;;;;;;;0.90;90.27;98036.30;249691;1148;22983;-77
2021/01/20 03:08:55;;;;;;;9.97;7.20;;;;;;;0.93;90.24;98043.72;249668;1156;22950;-77
2021/01/20 03:13:58;;;;;;;9.40;6.35;;;;;;;0.99;90.09;98046.18;249755;1149;23103;-77
2021/01/20 03:19:00;;;;;;;10.53;6.97;;;;;;;1.04;89.71;98042.80;249895;1148;24994;-77
2021/01/20 03:24:03;;;;;;;9.57;6.30;;;;;;;1.08;89.87;98040.46;249679;1148;23103;-76
2021/01/20 03:29:05;;;;;;;10.73;5.90;;;;;;;1.12;89.90;98041.57;249553;1156;22949;-76
2021/01/20 03:34:07;;;;;;;9.45;6.40;;;;;;;1.16;90.55;98040.86;249733;1151;22964;-77
2021/01/20 03:39:09;;;;;;;10.70;7.20;;;;;;;1.19;89.98;98043.00;249539;1151;22970;-75
2021/01/20 03:44:11;;;;;;;8.43;6.07;;;;;;;1.22;90.10;98039.08;249709;1156;23426;-75
2021/01/20 03:49:13;;;;;;;9.60;6.13;;;;;;;1.23;89.30;98030.09;249638;1148;22905;-78
2021/01/20 03:54:15;;;;;;;10.40;6.75;;;;;;;1.22;90.23;98020.61;249698;1150;27251;-84
2021/01/20 03:59:17;;;;;;;10.30;7.23;;;;;;;1.23;89.93;98035.37;249751;1148;23366;-75
2021/01/20 04:04:20;;;;;;;10.73;7.27;;;;;;;1.28;89.87;98039.94;249660;1156;23103;-76
2021/01/20 04:09:24;;;;;;;11.23;6.63;;;;;;;1.29;89.91;98033.63;249759;1148;22974;-77
2021/01/20 04:14:26;;;;;;;12.03;7.00;;;;;;;1.28;90.12;98038.09;249723;1148;27257;-76
2021/01/20 04:19:28;;;;;;;10.95;7.10;;;;;;;1.26;90.00;98032.27;249656;1150;22973;-77
2021/01/20 04:24:31;;;;;;;13.30;7.55;;;;;;;1.28;89.67;98040.72;249800;1156;22947;-77
2021/01/20 04:29:33;;;;;;;13.07;7.73;;;;;;;1.31;89.80;98039.44;249631;1150;23103;-77
2021/01/20 04:34:35;;;;;;;11.33;7.77;;;;;;;1.33;90.16;98038.16;249828;1147;23039;-75
2021/01/20 04:39:38;;;;;;;11.70;7.00;;;;;;;1.34;89.26;98023.92;249522;1148;22946;-77
2021/01/20 04:44:40;;;;;;;12.27;7.53;;;;;;;1.34;89.76;98039.76;249530;1148;22963;-77
2021/01/20 04:49:50;;;;;;;14.40;8.27;;;;;;;1.35;89.33;98032.63;249636;1151;22947;-75
2021/01/20 04:54:55;;;;;;;14.55;7.70;;;;;;;1.39;89.18;98044.29;249930;1148;22953;-76
2021/01/20 04:59:57;;;;;;;15.77;9.43;;;;;;;1.40;89.29;98045.89;249561;1151;22978;-76
2021/01/20 05:05:01;;;;;;;12.73;8.50;;;;;;;1.42;88.85;98032.45;249800;1148;22949;-79
2021/01/20 05:10:04;;;;;;;17.40;9.70;;;;;;;1.44;89.13;98051.46;249652;1148;22966;-78
2021/01/20 05:15:10;;;;;;;15.27;9.03;;;;;;;1.47;89.49;98053.60;249728;1148;22945;-76
2021/01/20 05:20:35;;;;;;;14.93;9.93;;;;;;;1.48;89.68;98050.74;249679;1147;27122;-77
2021/01/20 05:25:39;;;;;;;22.57;11.93;;;;;;;1.50;89.08;98063.69;249687;1148;23096;-77
2021/01/20 05:30:52;;;;;;;17.30;10.67;;;;;;;1.52;89.17;98067.66;249650;1151;23040;-77
2021/01/20 05:36:09;;;;;;;17.70;10.67;;;;;;;1.52;89.14;98070.30;249708;1155;22968;-76
2021/01/20 05:41:23;;;;;;;17.15;10.30;;;;;;;1.58;89.56;98065.09;249802;1148;26476;-76
2021/01/20 05:46:31;;;;;;;18.90;11.03;;;;;;;1.61;89.03;98080.42;249544;1148;23103;-77
2021/01/20 05:51:44;;;;;;;21.10;11.37;;;;;;;1.64;89.87;98090.52;249541;1151;23152;-77
2021/01/20 05:56:46;;;;;;;20.00;11.33;;;;;;;1.64;89.02;98077.31;249719;1156;22973;-76
2021/01/20 06:01:48;;;;;;;17.57;10.90;;;;;;;1.63;88.97;98081.78;249608;1148;23039;-77
2021/01/20 06:06:56;;;;;;;17.07;10.90;;;;;;;1.68;88.68;98096.91;249571;1156;23056;-77
2021/01/20 06:11:58;;;;;;;17.60;10.47;;;;;;;1.69;89.15;98090.55;249714;1150;23179;-78
2021/01/20 06:17:04;;;;;;;19.17;10.90;;;;;;;1.67;89.19;98082.88;249649;1148;23003;-77
2021/01/20 06:22:07;;;;;;;18.25;10.20;;;;;;;1.69;89.06;98083.45;249548;1148;22970;-77
2021/01/20 06:27:16;;;;;;;17.00;10.53;;;;;;;1.75;88.93;98094.05;249803;1148;24710;-77
2021/01/20 06:32:23;;;;;;;15.97;9.97;;;;;;;1.78;89.44;98099.65;249640;1148;25983;-76
2021/01/20 06:37:43;;;;;;;15.63;10.23;;;;;;;1.85;89.12;98110.81;249859;1148;23042;-76
2021/01/20 06:42:49;;;;;;;14.97;10.23;;;;;;;1.91;89.27;98108.23;250394;1148;23123;-79
2021/01/20 06:47:58;;;;;;;15.93;9.87;;;;;;;1.95;89.25;98118.05;251075;1148;22967;-79
2021/01/20 06:53:01;;;;;;;15.40;10.03;;;;;;;1.98;88.96;98119.41;251054;1148;22962;-79
2021/01/20 06:58:20;;;;;;;14.80;9.07;;;;;;;2.07;88.74;98125.03;251317;1148;23002;-80
2021/01/20 07:03:44;;;;;;;15.87;9.70;;;;;;;2.11;88.67;98124.28;251313;1148;25883;-78
2021/01/20 07:08:52;;;;;;;14.23;8.80;;;;;;;2.13;89.10;98121.42;250665;1148;22954;-77
2021/01/20 07:13:54;;;;;;;23.80;12.57;;;;;;;2.17;89.00;98118.02;250894;1148;25989;-76
2021/01/20 07:18:57;;;;;;;23.77;13.37;;;;;;;2.17;88.53;98109.27;250374;1148;23017;-78
2021/01/20 07:23:59;;;;;;;19.95;12.60;;;;;;;2.15;88.10;98119.31;250482;1148;22942;-77
2021/01/20 07:29:16;;;;;;;16.33;10.97;;;;;;;2.18;88.38;98114.34;250243;1148;22965;-77
2021/01/20 07:34:19;;;;;;;22.27;13.47;;;;;;;2.27;88.69;98117.32;250381;1147;22961;-76
2021/01/20 07:39:23;;;;;;;22.67;12.00;;;;;;;2.46;88.27;98125.67;250702;1147;25899;-76
2021/01/20 07:44:26;;;;;;;22.53;13.00;;;;;;;2.62;88.23;98131.12;250663;1148;23107;-77
2021/01/20 07:49:29;;;;;;;21.57;11.77;;;;;;;2.70;87.47;98144.67;250370;1148;22943;-75
2021/01/20 07:54:36;;;;;;;17.40;10.43;;;;;;;2.77;87.40;98123.30;250697;1147;22942;-80
2021/01/20 07:59:38;;;;;;;20.20;10.70;;;;;;;2.81;86.79;98134.98;250763;1148;22998;-80
2021/01/20 08:04:41;;;;;;;17.20;9.87;;;;;;;2.83;86.57;98127.57;250827;1148;22980;-79
2021/01/20 08:09:44;;;;;;;19.47;11.20;;;;;;;2.90;86.51;98148.53;251285;1148;22969;-78
2021/01/20 08:14:47;;;;;;;18.23;10.13;;;;;;;2.99;86.99;98173.45;250608;1148;23100;-77
2021/01/20 08:19:54;;;;;;;14.65;9.40;;;;;;;3.05;86.67;98184.87;250722;1147;22953;-77
2021/01/20 08:24:56;;;;;;;18.07;10.83;;;;;;;3.15;86.61;98171.73;250541;1148;22984;-76
2021/01/20 08:29:59;;;;;;;14.93;9.10;;;;;;;3.21;85.95;98168.05;250625;1148;22955;-77
2021/01/20 08:35:01;;;;;;;17.17;8.93;;;;;;;3.27;85.47;98168.09;250286;1148;22962;-77
2021/01/20 08:40:05;;;;;;;16.73;9.20;;;;;;;3.31;85.59;98156.73;250336;1148;22972;-77
2021/01/20 08:45:10;;;;;;;16.60;8.60;;;;;;;3.38;85.68;98153.86;251058;1148;22957;-77
2021/01/20 08:50:15;;;;;;;14.00;7.30;;;;;;;3.50;85.33;98157.11;251171;1148;22933;-75
2021/01/20 08:55:34;;;;;;;10.97;6.70;;;;;;;3.62;84.99;98156.89;251045;1148;22933;-74
2021/01/20 09:00:40;;;;;;;14.10;7.90;;;;;;;3.67;84.81;98145.55;251225;1148;22949;-76
2021/01/20 09:05:44;;;;;;;10.10;6.50;;;;;;;3.72;83.84;98164.09;251321;1148;22955;-76
2021/01/20 09:10:47;;;;;;;11.83;7.03;;;;;;;3.72;82.45;98159.61;251029;1148;22945;-79
2021/01/20 09:15:51;;;;;;;14.07;7.40;;;;;;;3.75;83.40;98169.68;250358;1148;22964;-75
2021/01/20 09:20:54;;;;;;;14.45;7.60;;;;;;;3.85;83.59;98168.14;250203;1148;23417;-75
2021/01/20 09:25:56;;;;;;;12.27;6.47;;;;;;;3.91;82.82;98156.49;250590;1147;26162;-80
2021/01/20 09:30:58;;;;;;;13.57;7.80;;;;;;;3.97;83.15;98149.36;250661;1148;23368;-75
2021/01/20 09:36:01;;;;;;;11.63;6.60;;;;;;;4.09;82.85;98165.84;250126;1148;22939;-75
2021/01/20 09:41:03;;;;;;;14.07;7.83;;;;;;;4.13;82.43;98166.91;250254;1148;22945;-76
2021/01/20 09:46:05;;;;;;;13.97;7.60;;;;;;;4.17;81.73;98157.37;250736;1148;22967;-82
2021/01/20 09:51:07;;;;;;;13.73;7.13;;;;;;;4.14;81.33;98149.95;251327;1148;23270;-76
2021/01/20 09:56:10;;;;;;;12.83;6.70;;;;;;;4.13;81.55;98147.53;250842;1148;23149;-77
2021/01/20 10:01:12;;;;;;;13.47;7.30;;;;;;;4.11;81.73;98124.76;251030;1148;23083;-79
2021/01/20 10:06:14;;;;;;;12.80;6.87;;;;;;;4.09;82.06;98132.16;250829;1147;26408;-78
2021/01/20 10:11:16;;;;;;;10.67;6.10;;;;;;;4.20;82.25;98132.20;250424;1148;23076;-76
2021/01/20 10:16:19;;;;;;;14.93;7.23;;;;;;;4.33;81.94;98128.24;250307;1148;23402;-75
2021/01/20 10:21:21;;;;;;;14.83;8.33;;;;;;;4.37;81.40;98124.01;250134;1148;22963;-76
2021/01/20 10:26:24;;;;;;;11.23;5.83;;;;;;;4.35;81.24;98118.97;250008;1148;22970;-74
2021/01/20 10:31:38;;;;;;;13.17;7.03;;;;;;;4.31;80.91;98107.30;250489;1148;23850;-75
2021/01/20 10:36:40;;;;;;;12.40;6.10;;;;;;;4.32;80.91;98105.43;250668;1148;23359;-73
2021/01/20 10:41:43;;;;;;;12.43;6.73;;;;;;;4.27;80.95;98108.88;255765;1147;22899;-76
2021/01/20 10:46:47;;;;;;;10.83;5.77;;;;;;;4.24;80.84;98107.55;250485;1148;23065;-75
2021/01/20 10:51:51;;;;;;;10.53;5.90;;;;;;;4.18;81.24;98108.58;250344;1148;23178;-74
2021/01/20 10:56:53;;;;;;;8.67;4.63;;;;;;;4.23;81.50;98100.64;250618;1148;23038;-74
2021/01/20 11:01:55;;;;;;;12.10;6.37;;;;;;;4.37;80.80;98102.80;250320;1148;22943;-73
2021/01/20 11:06:57;;;;;;;11.30;5.65;;;;;;;4.50;82.12;98104.13;250193;1148;22991;-75
2021/01/20 11:12:00;;;;;;;18.80;7.27;;;;;;;4.71;83.72;98092.44;250266;1148;24686;-75
2021/01/20 11:17:02;;;;;;;9.13;6.10;;;;;;;5.00;83.11;98077.83;250176;1148;23683;-74
2021/01/20 11:22:07;;;;;;;17.03;9.13;;;;;;;5.35;83.82;98076.14;250178;1148;22962;-75
2021/01/20 11:27:10;;;;;;;11.40;5.85;;;;;;;5.74;81.28;98075.45;250034;1148;23000;-74
2021/01/20 11:32:12;;;;;;;12.00;6.65;;;;;;;5.92;78.90;98058.86;249940;1148;22964;-74
2021/01/20 11:37:15;;;;;;;8.57;4.63;;;;;;;5.99;77.98;98056.72;250150;1148;22903;-74
2021/01/20 11:42:16;;;;;;;10.23;6.50;;;;;;;6.08;78.13;98067.56;249781;1148;22941;-73
2021/01/20 11:47:20;;;;;;;11.40;5.70;;;;;;;6.09;75.15;98063.84;249915;1148;23412;-74
2021/01/20 11:52:23;;;;;;;9.70;5.33;;;;;;;6.06;76.42;98066.24;250171;1148;22981;-74
2021/01/20 11:57:27;;;;;;;10.27;5.23;;;;;;;6.06;75.55;98058.27;249703;1148;23097;-76
2021/01/20 12:02:29;;;;;;;9.07;4.87;;;;;;;6.10;74.61;98054.80;250211;1148;22946;-76
2021/01/20 12:07:32;;;;;;;7.20;4.30;;;;;;;6.13;74.23;98058.77;250430;1147;22940;-76
2021/01/20 12:12:34;;;;;;;7.90;4.60;;;;;;;6.12;74.11;98049.98;250322;1148;23101;-74
2021/01/20 12:17:37;;;;;;;7.87;4.27;;;;;;;6.03;73.77;98056.98;250045;1148;26600;-75
2021/01/20 12:22:40;;;;;;;11.90;5.13;;;;;;;5.98;73.28;98054.34;250378;1148;26367;-74
2021/01/20 12:27:42;;;;;;;9.37;5.93;;;;;;;5.91;74.05;98043.98;249959;1148;26513;-73
2021/01/20 12:32:44;;;;;;;10.70;5.95;;;;;;;5.86;74.24;98040.55;249918;1148;22946;-77
2021/01/20 12:37:46;;;;;;;11.10;6.47;;;;;;;5.83;74.27;98032.08;250117;1148;22976;-77
2021/01/20 12:42:48;;;;;;;8.03;4.50;;;;;;;5.86;72.97;98037.90;250137;1148;22920;-75
2021/01/20 12:47:50;;;;;;;7.90;4.70;;;;;;;5.96;73.86;98029.84;250003;1148;25894;-75
2021/01/20 12:52:52;;;;;;;9.80;4.93;;;;;;;6.10;74.18;98022.08;249871;1148;22968;-73
2021/01/20 12:57:54;;;;;;;7.03;4.10;;;;;;;6.21;72.54;98026.27;250090;1148;22965;-75
2021/01/20 13:02:57;;;;;;;6.43;4.00;;;;;;;6.27;71.68;98032.34;250564;1148;22968;-75
2021/01/20 13:07:59;;;;;;;7.10;4.03;;;;;;;6.35;71.50;98042.37;249893;1148;25989;-75
2021/01/20 13:13:01;;;;;;;7.13;4.00;;;;;;;6.41;71.47;98049.25;250017;1148;22945;-75
2021/01/20 13:18:05;;;;;;;5.90;3.60;;;;;;;6.41;71.51;98051.09;250176;1148;23053;-75
2021/01/20 13:23:08;;;;;;;7.00;3.55;;;;;;;6.36;70.82;98033.32;250325;1148;22942;-76
2021/01/20 13:28:09;;;;;;;9.05;3.95;;;;;;;6.27;71.48;98037.66;250256;1148;22901;-76
2021/01/20 13:33:11;;;;;;;6.17;3.50;;;;;;;6.20;71.90;98053.94;250291;1147;26399;-73
2021/01/20 13:38:14;;;;;;;5.27;3.20;;;;;;;6.16;72.12;98053.68;251062;1148;23433;-77
2021/01/20 13:43:17;;;;;;;4.90;3.43;;;;;;;6.16;71.50;98042.26;250377;1148;22959;-76
2021/01/20 13:48:19;;;;;;;6.63;3.33;;;;;;;6.14;71.53;98053.17;250145;1148;22963;-76
2021/01/20 13:53:21;;;;;;;5.97;3.10;;;;;;;6.10;71.15;98046.01;250274;1148;22907;-76
2021/01/20 13:58:23;;;;;;;5.85;3.00;;;;;;;6.06;70.44;98056.42;250013;1148;22966;-76
2021/01/20 14:03:28;;;;;;;4.70;2.70;;;;;;;6.02;70.32;98058.04;250129;1148;22961;-74
2021/01/20 14:08:30;;;;;;;6.33;3.23;;;;;;;6.02;70.77;98062.58;250223;1148;23103;-76
2021/01/20 14:13:32;;;;;;;6.60;3.93;;;;;;;6.03;71.24;98061.48;249898;1148;23077;-75
2021/01/20 14:18:34;;;;;;;7.43;4.00;;;;;;;5.99;70.47;98062.03;249863;1148;22942;-76
2021/01/20 14:23:39;;;;;;;9.60;5.33;;;;;;;5.97;71.13;98061.53;250376;1147;22965;-75
2021/01/20 14:28:41;;;;;;;8.40;4.50;;;;;;;5.90;71.51;98065.52;250049;1148;22938;-76
2021/01/20 14:33:43;;;;;;;10.40;4.30;;;;;;;5.81;70.88;98063.44;249796;1148;23001;-75
2021/01/20 14:38:48;;;;;;;8.37;4.30;;;;;;;5.70;71.14;98058.46;249901;1147;22964;-76
2021/01/20 14:43:50;;;;;;;10.27;3.97;;;;;;;5.54;71.82;98063.84;250537;1148;23374;-74
2021/01/20 14:48:53;;;;;;;7.70;4.40;;;;;;;5.41;72.04;98053.80;250355;1147;22914;-78
2021/01/20 14:53:56;;;;;;;7.07;4.00;;;;;;;5.24;72.31;98075.38;250864;1148;23079;-77
2021/01/20 14:58:58;;;;;;;9.27;4.77;;;;;;;5.06;72.47;98066.91;250281;1147;23418;-76
2021/01/20 15:04:00;;;;;;;12.60;5.20;;;;;;;4.94;72.90;98077.83;250637;1148;22966;-77
2021/01/20 15:09:03;;;;;;;12.15;5.20;;;;;;;4.85;72.68;98073.33;250949;1148;23046;-77
2021/01/20 15:14:07;;;;;;;11.20;6.23;;;;;;;4.73;73.07;98070.94;250962;1148;22899;-76
2021/01/20 15:19:09;;;;;;;21.90;11.37;;;;;;;4.59;73.77;98066.19;250355;1146;23417;-78
2021/01/20 15:24:11;;;;;;;14.67;6.73;;;;;;;4.51;74.35;98068.59;250475;1148;22964;-78
2021/01/20 15:29:13;;;;;;;11.40;5.43;;;;;;;4.44;74.21;98082.89;250202;1148;22906;-78
2021/01/20 15:34:16;;;;;;;16.70;8.45;;;;;;;4.36;75.05;98087.94;250293;1148;22949;-77
2021/01/20 15:39:18;;;;;;;20.53;10.93;;;;;;;4.28;75.49;98082.09;250393;1148;23022;-77
2021/01/20 15:44:20;;;;;;;25.00;13.33;;;;;;;4.20;75.81;98079.97;250500;1148;26394;-78
2021/01/20 15:49:23;;;;;;;26.23;15.27;;;;;;;4.16;76.35;98073.59;250333;1147;22938;-76
2021/01/20 15:54:35;;;;;;;25.73;15.30;;;;;;;4.08;75.88;98066.94;250545;1147;22920;-77
2021/01/20 15:59:37;;;;;;;23.90;13.63;;;;;;;4.03;76.28;98066.95;250440;1147;22970;-77
2021/01/20 16:04:40;;;;;;;26.80;14.55;;;;;;;3.94;76.73;98058.73;250236;1148;23018;-76
2021/01/20 16:09:45;;;;;;;33.80;17.70;;;;;;;3.95;77.34;98056.86;250087;1148;22946;-79
2021/01/20 16:14:47;;;;;;;47.57;25.83;;;;;;;3.98;78.65;98055.55;250182;1155;22942;-78
2021/01/20 16:19:50;;;;;;;46.97;24.03;;;;;;;3.87;77.03;98060.81;250067;1148;22942;-76
2021/01/20 16:24:51;;;;;;;51.00;25.53;;;;;;;3.73;76.92;98054.42;249847;1148;27077;-78
2021/01/20 16:29:54;;;;;;;54.97;30.27;;;;;;;3.64;76.96;98055.98;250078;1148;22946;-78
2021/01/20 16:34:56;;;;;;;51.23;28.90;;;;;;;3.59;77.50;98039.02;250190;1148;22942;-77
2021/01/20 16:39:59;;;;;;;63.95;31.55;;;;;;;3.59;77.56;98035.58;249938;1151;23161;-78
2021/01/20 16:45:02;;;;;;;59.30;28.23;;;;;;;3.57;76.69;98043.00;249799;1148;23417;-78
2021/01/20 16:50:05;;;;;;;90.40;47.47;;;;;;;3.59;77.77;98039.02;249796;1156;22946;-77
2021/01/20 16:55:08;;;;;;;85.93;44.20;;;;;;;3.56;77.59;98050.13;250168;1151;22977;-74
2021/01/20 17:00:11;;;;;;;91.17;46.23;;;;;;;3.52;77.97;98046.41;249769;1147;22990;-77
2021/01/20 17:05:16;;;;;;;84.80;43.65;;;;;;;3.50;77.82;98045.89;249884;1150;22980;-77
2021/01/20 17:10:21;;;;;;;79.77;43.93;;;;;;;3.48;78.08;98044.55;249892;1156;22989;-79
2021/01/20 17:15:24;;;;;;;77.73;43.50;;;;;;;3.49;78.67;98046.15;249854;1148;23038;-80
2021/01/20 17:20:26;;;;;;;72.37;38.57;;;;;;;3.51;78.37;98041.38;249999;1150;22942;-77
2021/01/20 17:25:28;;;;;;;80.83;42.97;;;;;;;3.52;78.72;98043.77;250193;1148;22920;-78
2021/01/20 17:30:33;;;;;;;79.00;42.03;;;;;;;3.60;79.49;98042.48;249886;1150;22970;-78
2021/01/20 17:35:35;;;;;;;109.80;55.30;;;;;;;3.59;78.82;98051.47;249939;1150;22993;-78
2021/01/20 17:40:38;;;;;;;120.80;63.07;;;;;;;3.43;78.38;98048.77;249956;1148;25983;-77
2021/01/20 17:45:40;;;;;;;130.60;65.57;;;;;;;3.35;78.96;98033.38;249936;1148;23006;-78
2021/01/20 17:50:42;;;;;;;137.40;69.97;;;;;;;3.30;79.53;98040.50;249829;1155;22948;-79
2021/01/20 17:55:49;;;;;;;118.60;60.70;;;;;;;3.24;79.53;98032.53;250031;1148;22939;-78
2021/01/20 18:00:51;;;;;;;118.77;57.13;;;;;;;3.11;78.81;98027.72;249852;1148;22935;-76
2021/01/20 18:05:54;;;;;;;136.40;67.80;;;;;;;2.96;79.24;98025.79;250207;1151;22953;-79
2021/01/20 18:10:56;;;;;;;121.70;60.85;;;;;;;2.88;79.06;98029.73;249873;1150;23406;-75
2021/01/20 18:15:58;;;;;;;124.40;61.73;;;;;;;2.84;79.45;98025.19;250012;1148;22950;-78
2021/01/20 18:21:01;;;;;;;103.10;53.67;;;;;;;2.81;79.27;98033.64;249898;1151;23414;-78
2021/01/20 18:26:03;;;;;;;90.73;46.27;;;;;;;2.81;79.50;98023.06;249981;1148;22952;-77
2021/01/20 18:31:05;;;;;;;70.03;36.03;;;;;;;2.85;79.34;98016.20;249880;1156;22901;-78
2021/01/20 18:36:08;;;;;;;73.50;35.75;;;;;;;2.89;79.13;98017.29;249946;1151;22945;-77
2021/01/20 18:41:10;;;;;;;71.30;37.73;;;;;;;2.87;79.37;98014.91;250014;1156;22964;-78
2021/01/20 18:46:12;;;;;;;54.23;27.27;;;;;;;2.86;79.05;98015.95;249953;1148;23101;-77
2021/01/20 18:51:14;;;;;;;69.15;35.70;;;;;;;2.88;79.56;98024.44;250117;1150;23014;-77
2021/01/20 18:56:16;;;;;;;58.20;28.83;;;;;;;2.91;79.11;98026.56;250082;1150;23418;-77
2021/01/20 19:01:18;;;;;;;63.15;33.00;;;;;;;2.97;79.30;98022.09;250071;1148;22955;-78
2021/01/20 19:06:20;;;;;;;70.37;37.67;;;;;;;3.02;79.67;98030.07;250012;1147;25929;-78
2021/01/20 19:11:23;;;;;;;59.97;27.20;;;;;;;3.01;78.89;98032.98;250327;1148;23161;-77
2021/01/20 19:16:27;;;;;;;75.53;36.13;;;;;;;2.97;79.20;98024.75;250245;1148;22950;-78
2021/01/20 19:21:30;;;;;;;76.33;36.73;;;;;;;2.91;79.08;98026.56;249880;1151;23047;-78
2021/01/20 19:26:32;;;;;;;81.60;38.70;;;;;;;2.92;79.29;98030.00;250002;1148;22943;-85
2021/01/20 19:31:35;;;;;;;71.45;36.25;;;;;;;2.96;79.50;98038.23;249985;1148;22952;-78
2021/01/20 19:36:39;;;;;;;68.27;33.83;;;;;;;3.00;79.64;98031.38;250155;1151;22957;-77
2021/01/20 19:41:41;;;;;;;61.90;29.80;;;;;;;3.03;79.46;98029.00;250236;1148;23648;-78
2021/01/20 19:46:44;;;;;;;60.50;30.77;;;;;;;3.05;78.65;98026.91;249844;1148;23087;-78
2021/01/20 19:51:47;;;;;;;75.43;36.70;;;;;;;3.02;78.70;98030.07;249992;1156;22942;-77
2021/01/20 19:56:49;;;;;;;65.57;31.00;;;;;;;2.95;78.42;98026.05;249995;1148;23212;-79
2021/01/20 20:01:51;;;;;;;71.53;34.13;;;;;;;2.83;78.38;98021.76;249992;1151;22950;-78
2021/01/20 20:06:53;;;;;;;110.10;51.20;;;;;;;2.73;78.98;98017.20;249960;1148;23109;-78
2021/01/20 20:11:56;;;;;;;88.10;40.47;;;;;;;2.66;78.48;98010.53;249845;1151;23091;-78
2021/01/20 20:16:58;;;;;;;98.45;47.50;;;;;;;2.60;78.58;97999.13;249889;1147;22960;-77
2021/01/20 20:22:01;;;;;;;98.57;47.53;;;;;;;2.54;79.12;97993.01;249886;1155;22944;-78
2021/01/20 20:27:03;;;;;;;116.15;51.95;;;;;;;2.52;79.26;97989.05;249954;1148;22945;-78
2021/01/20 20:32:06;;;;;;;100.70;47.00;;;;;;;2.49;79.38;97986.89;249970;1148;22946;-78
2021/01/20 20:37:08;;;;;;;89.43;39.27;;;;;;;2.44;78.98;97995.59;249970;1148;22970;-77
2021/01/20 20:42:10;;;;;;;89.10;38.83;;;;;;;2.43;79.12;97991.35;249998;1148;22974;-78
2021/01/20 20:47:13;;;;;;;105.57;47.07;;;;;;;2.39;78.99;97990.27;249817;1148;22960;-77
2021/01/20 20:52:15;;;;;;;120.00;51.50;;;;;;;2.38;79.07;98004.55;249928;1156;23047;-78
2021/01/20 20:57:17;;;;;;;115.93;51.23;;;;;;;2.35;79.39;97992.64;250108;1148;22995;-77
2021/01/20 21:02:19;;;;;;;118.30;52.83;;;;;;;2.33;79.97;97988.65;250044;1147;26410;-77
2021/01/20 21:07:22;;;;;;;144.07;61.40;;;;;;;2.33;79.77;97986.00;250200;1149;23116;-78
2021/01/20 21:12:26;;;;;;;148.25;64.60;;;;;;;2.41;79.96;97982.89;250542;1155;22960;-77
2021/01/20 21:17:29;;;;;;;168.37;73.83;;;;;;;2.51;80.57;97984.81;250254;1147;22941;-79
2021/01/20 21:22:32;;;;;;;175.47;79.37;;;;;;;2.50;80.18;97972.63;250311;1153;22938;-76
2021/01/20 21:27:35;;;;;;;179.60;80.83;;;;;;;2.49;80.47;97971.03;250126;1148;23154;-78
2021/01/20 21:32:37;;;;;;;195.63;84.30;;;;;;;2.57;81.27;97975.84;250116;1156;22906;-78
2021/01/20 21:37:39;;;;;;;180.47;80.23;;;;;;;2.69;81.68;97975.66;250053;1148;23406;-77
2021/01/20 21:42:41;;;;;;;165.67;73.10;;;;;;;2.70;81.19;97966.66;250173;1156;22967;-81
2021/01/20 21:47:44;;;;;;;170.93;77.03;;;;;;;2.71;81.17;97971.71;250051;1148;22942;-78
2021/01/20 21:52:46;;;;;;;173.93;80.30;;;;;;;2.67;80.76;97965.34;250012;1148;22951;-78
2021/01/20 21:57:48;;;;;;;181.83;78.57;;;;;;;2.67;81.00;97960.05;249920;1151;22952;-76
2021/01/20 22:02:50;;;;;;;159.77;73.03;;;;;;;2.64;81.31;97957.89;250002;1151;23116;-78
2021/01/20 22:07:53;;;;;;;128.10;55.57;;;;;;;2.62;80.69;97961.88;250256;1148;24581;-78
2021/01/20 22:12:55;;;;;;;160.30;73.50;;;;;;;2.54;80.99;97949.92;250129;1155;22948;-78
2021/01/20 22:17:57;;;;;;;170.50;79.57;;;;;;;2.51;81.47;97945.15;250114;1148;22966;-78
2021/01/20 22:23:00;;;;;;;171.90;77.50;;;;;;;2.41;80.79;97951.17;250003;1148;23031;-78
2021/01/20 22:28:03;;;;;;;173.53;79.17;;;;;;;2.27;80.64;97939.42;250144;1148;23328;-78
2021/01/20 22:33:05;;;;;;;161.90;68.65;;;;;;;2.22;81.08;97942.84;250021;1148;22998;-76
2021/01/20 22:38:08;;;;;;;170.63;79.13;;;;;;;2.19;81.07;97940.72;250026;1148;22954;-78
2021/01/20 22:43:11;;;;;;;175.70;76.97;;;;;;;2.22;82.04;97942.84;249919;1155;22946;-78
2021/01/20 22:48:14;;;;;;;169.10;77.93;;;;;;;2.20;81.14;97932.53;250223;1148;22905;-77
2021/01/20 22:53:15;;;;;;;179.57;78.40;;;;;;;2.25;81.65;97934.40;250101;1148;23103;-78
2021/01/20 22:58:17;;;;;;;150.63;68.10;;;;;;;2.27;81.71;97920.92;250083;1148;22942;-78
2021/01/20 23:03:19;;;;;;;150.10;64.20;;;;;;;2.14;81.20;97914.25;250160;1152;23395;-78
2021/01/20 23:08:22;;;;;;;159.53;72.27;;;;;;;2.11;81.86;97915.55;249998;1148;23100;-78
2021/01/20 23:13:26;;;;;;;164.25;72.35;;;;;;;2.14;82.25;97908.96;250154;1148;27302;-78
2021/01/20 23:18:28;;;;;;;164.33;70.57;;;;;;;2.14;82.31;97903.67;249973;1148;22959;-80
2021/01/20 23:23:31;;;;;;;152.90;68.45;;;;;;;2.12;82.71;97908.44;250158;1148;23000;-78
2021/01/20 23:28:34;;;;;;;137.13;60.53;;;;;;;2.09;82.25;97915.02;250395;1148;22964;-77